Time;durP1;ratioP1;P1;durP2;ratioP2;P2;SDS_P1;SDS_P2;PMS_P1;PMS_P2;Temp;Humidity;BMP_temperature;BMP_pressure;BME280_temperature;BME280_humidity;BME280_pressure;Samples;Min_cycle;Max_cycle;Signal;HPM_P1;HPM_P2
2022/01/24 00:00:24;;;;;;;55.00;15.05;;;6.80;99.90;;;5.34;100.00;102829.88;4885675;28;20034;-87
2022/01/24 00:03:15;;;;;;;45.17;14.95;;;6.90;99.90;;;5.46;100.00;102840.41;4903076;28;20094;-88
2022/01/24 00:05:41;;;;;;;48.42;15.95;;;6.90;99.90;;;5.46;100.00;102845.66;4890105;28;20571;-90
2022/01/24 00:08:07;;;;;;;39.53;14.93;;;6.80;99.90;;;5.43;100.00;102824.72;4945561;28;20038;-85
2022/01/24 00:10:45;;;;;;;45.92;16.27;;;6.80;99.90;;;5.46;100.00;102831.72;4890428;28;20027;-84
2022/01/24 00:28:34;;;;;;;46.97;16.58;;;6.90;99.90;;;5.53;100.00;102838.78;4923674;28;20087;-91
2022/01/24 00:31:00;;;;;;;52.80;17.10;;;;;;;5.56;100.00;102833.56;4903559;28;20033;-87
2022/01/24 00:33:26;;;;;;;58.28;17.65;;;6.90;99.90;;;5.57;100.00;102834.41;4887575;28;20042;-84
2022/01/24 00:35:53;;;;;;;46.63;18.95;;;;;;;5.57;100.00;102839.66;4931363;28;20033;-88
2022/01/24 00:38:31;;;;;;;51.45;17.63;;;;;;;5.53;100.00;102831.78;4903942;28;20096;-87
2022/01/24 00:41:12;;;;;;;48.47;18.30;;;7.00;99.90;;;5.55;100.00;102834.44;4930042;28;20061;-88
2022/01/24 00:47:04;;;;;;;54.40;18.85;;;;;;;5.54;100.00;102837.88;4869269;28;20043;-87
2022/01/24 00:56:19;;;;;;;53.35;17.60;;;;;;;5.52;100.00;102829.16;4917208;28;20559;-86
2022/01/24 00:58:45;;;;;;;50.95;17.50;;;6.90;99.90;;;5.53;100.00;102826.56;4879879;28;20491;-89
2022/01/24 01:01:12;;;;;;;51.20;18.15;;;6.90;99.90;;;5.53;100.00;102828.31;4878215;28;20046;-90
2022/01/24 01:06:30;;;;;;;41.97;15.63;;;7.00;99.90;;;5.51;100.00;102832.66;4956440;28;20402;-80
2022/01/24 01:20:00;;;;;;;48.17;17.85;;;6.90;99.90;;;5.46;100.00;102822.13;4948136;28;20033;-80
2022/01/24 01:22:26;;;;;;;45.92;17.60;;;6.90;99.90;;;5.46;100.00;102829.09;4951389;28;20043;-80
2022/01/24 01:24:54;;;;;;;42.92;17.17;;;6.90;99.90;;;5.48;100.00;102820.41;4934046;28;25714;-80
2022/01/24 01:27:37;;;;;;;39.10;16.67;;;6.90;99.90;;;5.44;100.00;102818.66;4917518;28;20479;-80
2022/01/24 01:30:17;;;;;;;40.72;15.85;;;6.80;99.90;;;5.38;100.00;102817.72;4925519;28;20025;-80
2022/01/24 01:32:56;;;;;;;39.22;17.15;;;6.80;99.90;;;5.42;100.00;102823.00;4914933;28;20042;-80
2022/01/24 01:56:08;;;;;;;46.40;20.13;;;6.80;99.90;;;5.39;100.00;102815.13;4930918;28;20042;-80
2022/01/24 01:58:38;;;;;;;48.67;20.70;;;6.80;99.90;;;5.40;100.00;102827.34;4941657;28;20027;-80
2022/01/24 02:01:05;;;;;;;57.55;21.48;;;6.80;99.90;;;5.39;100.00;102827.31;4923915;28;20034;-80
2022/01/24 02:03:32;;;;;;;61.60;21.30;;;6.80;99.90;;;5.39;100.00;102819.47;4922354;28;20034;-80
2022/01/24 02:05:58;;;;;;;53.10;23.08;;;6.80;99.90;;;5.37;100.00;102818.59;4970377;28;20031;-80
2022/01/24 02:08:31;;;;;;;46.72;22.10;;;6.80;99.90;;;5.38;100.00;102820.31;4894236;28;20036;-80
2022/01/24 02:10:58;;;;;;;63.88;22.88;;;6.80;99.90;;;5.37;100.00;102811.63;4915131;28;20041;-81
2022/01/24 02:13:30;;;;;;;46.03;23.17;;;6.70;99.90;;;5.35;100.00;102821.19;4948695;28;20030;-80
2022/01/24 02:17:02;;;;;;;54.40;25.60;;;6.70;99.90;;;5.35;100.00;102819.44;4967554;28;20035;-79
2022/01/24 02:19:10;;;;;;;53.58;23.55;;;6.70;99.90;;;5.29;100.00;102823.72;4929920;28;20050;-80
2022/01/24 02:22:05;;;;;;;65.32;25.15;;;6.70;99.90;;;5.23;100.00;102821.97;4936257;28;20026;-80
2022/01/24 02:24:51;;;;;;;55.55;25.05;;;6.70;99.90;;;5.25;100.00;102816.75;4951951;28;20023;-80
2022/01/24 02:27:19;;;;;;;57.37;24.30;;;6.60;99.90;;;5.20;100.00;102831.50;4919989;28;20510;-80
2022/01/24 02:29:53;;;;;;;58.10;26.55;;;6.70;99.90;;;5.23;100.00;102818.47;4936917;28;20268;-79
2022/01/24 02:32:19;;;;;;;58.42;26.25;;;6.70;99.90;;;5.23;100.00;102828.94;4959082;28;20042;-80
2022/01/24 02:34:48;;;;;;;69.45;27.38;;;6.70;99.90;;;5.23;100.00;102819.34;4949697;28;20035;-80
2022/01/24 02:37:19;;;;;;;60.33;27.73;;;6.70;99.90;;;5.24;100.00;102813.25;4934942;28;20979;-81
2022/01/24 02:39:58;;;;;;;66.55;28.10;;;6.70;99.90;;;5.25;100.00;102828.06;4919999;28;20045;-81
2022/01/24 02:48:26;;;;;;;76.80;29.52;;;6.60;99.90;;;5.17;100.00;102810.59;4963503;28;20103;-80
2022/01/24 02:53:51;;;;;;;68.43;28.92;;;6.60;99.90;;;5.12;100.00;102800.97;4909297;28;20018;-81
2022/01/24 02:56:17;;;;;;;68.50;31.33;;;6.60;99.90;;;5.17;100.00;102802.75;4931813;28;20022;-81
2022/01/24 02:58:43;;;;;;;81.50;31.20;;;6.60;99.90;;;5.14;100.00;102799.25;4918798;28;20544;-80
2022/01/24 03:01:09;;;;;;;79.47;32.45;;;6.60;99.90;;;5.12;100.00;102798.34;4883994;28;20051;-80
2022/01/24 03:03:36;;;;;;;75.70;31.60;;;6.60;99.90;;;5.14;100.00;102801.84;4951211;28;20752;-80
2022/01/24 03:06:07;;;;;;;64.15;30.70;;;6.60;99.90;;;5.13;100.00;102792.25;4949423;28;20038;-80
2022/01/24 03:08:36;;;;;;;78.72;33.45;;;6.60;99.90;;;5.16;100.00;102801.84;4962317;28;20018;-80
2022/01/24 03:11:04;;;;;;;87.40;33.45;;;6.60;99.90;;;5.17;100.00;102798.38;4935750;28;20038;-80
2022/01/24 03:13:35;;;;;;;75.32;35.05;;;6.60;99.90;;;5.17;100.00;102803.63;4933489;28;20443;-80
2022/01/24 03:16:08;;;;;;;82.22;35.33;;;6.60;99.90;;;5.17;100.00;102808.84;4919806;28;21530;-80
2022/01/24 03:18:42;;;;;;;79.68;35.00;;;6.60;99.90;;;5.14;100.00;102804.47;4937583;28;20586;-80
2022/01/24 03:21:08;;;;;;;81.47;35.10;;;6.60;99.90;;;5.14;100.00;102809.69;4955040;28;20028;-81
2022/01/24 03:23:34;;;;;;;78.60;33.60;;;6.60;99.90;;;5.14;100.00;102801.84;4938529;28;20082;-80
2022/01/24 03:25:59;;;;;;;75.57;32.85;;;6.60;99.90;;;5.16;100.00;102806.19;4907294;28;20018;-80
2022/01/24 03:28:26;;;;;;;76.35;33.80;;;6.60;99.90;;;5.14;100.00;102803.59;4946758;28;20045;-80
2022/01/24 03:30:55;;;;;;;82.03;33.88;;;6.60;99.90;;;5.16;100.00;102807.06;4935547;28;20552;-81
2022/01/24 03:33:22;;;;;;;77.15;32.58;;;6.60;99.90;;;5.14;100.00;102812.31;4977561;28;20045;-80
2022/01/24 03:35:49;;;;;;;73.40;32.20;;;6.60;99.90;;;5.11;100.00;102837.50;4903182;28;20498;-81
2022/01/24 03:38:16;;;;;;;75.95;30.90;;;6.60;99.90;;;5.10;100.00;102809.66;4925226;28;20038;-80
2022/01/24 03:40:51;;;;;;;73.93;31.73;;;6.50;99.90;;;5.10;100.00;102813.13;5006638;23;20108;-81
2022/01/24 03:43:17;;;;;;;71.75;29.73;;;6.60;99.90;;;5.10;100.00;102807.91;4883286;28;20039;-82
2022/01/24 03:46:09;;;;;;;72.20;30.00;;;6.50;99.90;;;5.10;100.00;102812.25;4898275;28;20033;-79
2022/01/24 03:48:42;;;;;;;75.28;29.05;;;6.50;99.90;;;5.11;100.00;102812.25;4900583;28;20487;-79
2022/01/24 03:51:14;;;;;;;76.55;29.52;;;6.50;99.90;;;5.12;100.00;102814.03;4986969;28;20503;-78
2022/01/24 03:53:42;;;;;;;83.55;30.27;;;6.50;99.90;;;5.08;100.00;102817.47;4887289;28;20065;-78
2022/01/24 03:56:15;;;;;;;65.15;26.27;;;6.50;99.90;;;5.06;100.00;102816.56;4884918;28;20019;-80
2022/01/24 03:58:43;;;;;;;62.65;26.17;;;6.50;99.90;;;5.02;100.00;102808.69;4903698;28;20033;-80
2022/01/24 04:01:10;;;;;;;67.85;27.83;;;6.50;99.90;;;5.06;100.00;102816.56;4856536;28;20035;-80
2022/01/24 04:03:46;;;;;;;58.72;24.65;;;6.50;99.90;;;5.02;100.00;102803.47;4902402;28;20030;-80
2022/01/24 04:06:11;;;;;;;55.25;22.42;;;6.40;99.90;;;5.00;100.00;102808.66;4880155;28;20043;-81
2022/01/24 04:08:38;;;;;;;58.88;24.40;;;6.40;99.90;;;4.98;100.00;102792.13;4870017;28;20049;-81
2022/01/24 04:11:10;;;;;;;60.40;25.23;;;6.40;99.90;;;4.96;100.00;102811.25;4963187;23;20135;-82
2022/01/24 04:13:39;;;;;;;52.25;23.13;;;6.40;99.90;;;4.95;100.00;102818.22;4940232;28;20032;-83
2022/01/24 04:18:55;;;;;;;49.67;22.27;;;6.40;99.90;;;4.97;100.00;102815.59;4941601;28;20489;-82
2022/01/24 04:24:05;;;;;;;48.40;20.85;;;6.40;99.90;;;4.92;100.00;102807.72;4962007;28;20033;-81
2022/01/24 04:26:32;;;;;;;54.97;23.42;;;6.40;99.90;;;4.91;100.00;102808.59;4952658;28;20032;-82
2022/01/24 04:29:08;;;;;;;57.30;24.00;;;6.40;99.90;;;4.94;100.00;102808.59;4934672;28;20027;-82
2022/01/24 04:31:34;;;;;;;54.20;22.42;;;6.40;99.90;;;4.95;100.00;102815.59;4955392;23;20128;-82
2022/01/24 04:34:01;;;;;;;46.50;20.95;;;6.40;99.90;;;4.91;100.00;102819.03;4928038;28;20033;-82
2022/01/24 04:36:32;;;;;;;57.03;22.83;;;6.40;99.90;;;4.92;100.00;102807.72;4905222;28;20118;-81
2022/01/24 04:38:58;;;;;;;58.38;22.30;;;6.40;99.90;;;4.93;100.00;102814.69;4953058;28;20112;-81
2022/01/24 04:41:29;;;;;;;44.22;20.38;;;6.40;99.90;;;4.90;100.00;102815.56;4964954;28;20034;-81
2022/01/24 04:47:00;;;;;;;42.53;18.95;;;6.30;99.90;;;4.91;100.00;102819.03;4970751;28;20108;-81
2022/01/24 04:54:57;;;;;;;45.17;19.77;;;6.30;99.90;;;4.81;100.00;102818.03;4913036;28;20065;-82
2022/01/24 04:57:27;;;;;;;53.75;20.98;;;6.30;99.90;;;4.85;100.00;102813.75;4873964;28;20531;-82
2022/01/24 04:59:58;;;;;;;58.83;23.90;;;6.30;99.90;;;4.85;100.00;102809.38;4919200;28;20030;-81
2022/01/24 05:02:27;;;;;;;47.20;20.67;;;6.30;99.90;;;4.84;100.00;102814.63;4916413;28;20042;-80
2022/01/24 05:04:56;;;;;;;47.50;21.58;;;6.30;99.90;;;4.82;100.00;102813.72;4926621;28;20482;-82
2022/01/24 05:07:27;;;;;;;61.35;24.17;;;6.30;99.90;;;4.81;100.00;102814.56;4948935;28;20570;-81
2022/01/24 05:10:19;;;;;;;52.22;22.27;;;6.30;99.90;;;4.76;100.00;102805.81;4902514;23;20432;-82
2022/01/24 05:21:31;;;;;;;67.13;22.95;;;6.20;99.90;;;4.76;100.00;102824.09;4975240;28;21542;-81
2022/01/24 05:23:59;;;;;;;56.05;20.58;;;6.20;99.90;;;4.76;100.00;102818.88;4958608;28;20044;-82
2022/01/24 05:26:25;;;;;;;50.97;19.98;;;6.20;99.90;;;4.75;100.00;102810.13;4937376;28;22789;-80
2022/01/24 05:28:51;;;;;;;54.47;19.88;;;6.20;99.90;;;4.75;100.00;102806.66;4909826;28;20107;-80
2022/01/24 05:31:17;;;;;;;63.65;22.00;;;6.20;99.90;;;4.77;100.00;102813.63;4927914;23;20050;-81
2022/01/24 05:33:43;;;;;;;49.70;20.38;;;6.20;99.90;;;4.75;100.00;102820.56;4874046;28;20027;-82
2022/01/24 05:36:09;;;;;;;64.75;24.35;;;6.20;99.90;;;4.80;100.00;102818.03;4904761;28;20039;-81
2022/01/24 05:38:40;;;;;;;61.45;22.95;;;6.30;99.90;;;4.84;100.00;102806.78;4894069;28;20039;-82
2022/01/24 05:41:06;;;;;;;62.97;23.20;;;6.20;99.90;;;4.85;100.00;102811.13;4898419;28;20033;-81
2022/01/24 05:43:32;;;;;;;72.05;24.45;;;6.30;99.90;;;4.86;100.00;102821.59;4907727;28;20500;-81
2022/01/24 05:45:58;;;;;;;68.30;23.85;;;6.30;99.90;;;4.83;100.00;102818.94;4874874;28;20546;-81
2022/01/24 05:48:24;;;;;;;65.25;24.30;;;6.30;99.90;;;4.84;100.00;102825.06;4857057;28;20122;-80
2022/01/24 05:50:55;;;;;;;58.00;21.98;;;6.30;99.90;;;4.83;100.00;102818.06;4897400;23;20077;-81
2022/01/24 05:53:21;;;;;;;59.63;24.15;;;6.30;99.90;;;4.87;100.00;102833.78;4927907;28;20033;-81
2022/01/24 05:55:47;;;;;;;69.05;23.67;;;6.30;99.90;;;4.85;100.00;102821.56;4920694;28;20048;-81
2022/01/24 05:58:13;;;;;;;71.20;24.95;;;6.30;99.90;;;4.85;100.00;102821.56;4962326;28;20041;-81
2022/01/24 06:00:39;;;;;;;74.78;22.90;;;6.30;99.90;;;4.85;100.00;102824.19;4939969;28;20053;-81
2022/01/24 06:03:05;;;;;;;64.47;23.17;;;6.30;99.90;;;4.86;100.00;102829.44;4913509;28;20034;-80
2022/01/24 06:05:36;;;;;;;66.85;24.38;;;6.30;99.90;;;4.86;100.00;102825.91;4933375;28;20080;-80
2022/01/24 06:08:03;;;;;;;67.60;24.30;;;6.30;99.90;;;4.82;100.00;102834.59;4889641;28;20022;-81
2022/01/24 06:10:29;;;;;;;56.00;22.48;;;6.20;99.90;;;4.79;100.00;102835.41;4921536;28;20661;-80
2022/01/24 06:12:55;;;;;;;57.60;23.10;;;6.30;99.90;;;4.82;100.00;102837.22;4898422;28;20050;-81
2022/01/24 06:15:29;;;;;;;62.70;23.75;;;6.30;99.90;;;4.85;100.00;102835.50;4921763;28;20514;-81
2022/01/24 06:17:55;;;;;;;62.95;23.08;;;6.30;99.90;;;4.86;100.00;102825.91;4905652;28;20061;-82
2022/01/24 06:20:21;;;;;;;71.03;23.90;;;6.30;99.90;;;4.84;100.00;102822.44;4923440;28;20050;-81
2022/01/24 06:22:47;;;;;;;61.20;21.48;;;6.30;99.90;;;4.85;100.00;102837.22;4884632;28;20042;-80
2022/01/24 06:25:14;;;;;;;59.20;23.40;;;6.30;99.90;;;4.82;100.00;102840.69;4892917;28;20049;-80
2022/01/24 06:27:47;;;;;;;64.97;22.85;;;6.30;99.90;;;4.83;100.00;102826.75;4944392;28;20978;-81
2022/01/24 06:30:13;;;;;;;65.55;22.48;;;6.30;99.90;;;4.84;100.00;102835.50;4910079;28;20030;-81
2022/01/24 06:32:39;;;;;;;59.75;23.50;;;6.20;99.90;;;4.82;100.00;102837.22;4923925;28;20068;-80
2022/01/24 06:35:13;;;;;;;68.28;23.50;;;6.30;99.90;;;4.83;100.00;102841.56;4894452;28;20096;-79
2022/01/24 06:37:41;;;;;;;61.15;23.88;;;6.20;99.90;;;4.77;100.00;102841.50;4915561;28;20031;-82
2022/01/24 06:40:15;;;;;;;82.07;24.90;;;6.20;99.90;;;4.79;100.00;102832.81;4923772;28;20057;-82
2022/01/24 06:42:41;;;;;;;60.97;24.08;;;6.30;99.90;;;4.77;100.00;102831.91;4910197;28;20026;-80
2022/01/24 06:45:09;;;;;;;61.05;25.45;;;6.20;99.90;;;4.79;100.00;102842.38;4944744;28;20063;-81
2022/01/24 06:47:35;;;;;;;67.95;24.38;;;6.30;99.90;;;4.78;100.00;102841.50;4910275;28;20045;-80
2022/01/24 06:50:08;;;;;;;69.90;24.80;;;6.20;99.90;;;4.74;100.00;102844.94;4932255;23;20083;-82
2022/01/24 06:52:34;;;;;;;60.05;24.85;;;6.20;99.90;;;4.70;100.00;102844.03;4853260;28;20058;-81
2022/01/24 06:55:00;;;;;;;61.55;24.77;;;5.60;99.90;;;4.70;100.00;102849.25;4858952;28;20034;-82
2022/01/24 06:57:27;;;;;;;68.40;26.17;;;6.10;99.90;;;4.66;100.00;102844.84;4887840;28;20032;-82
2022/01/24 06:59:53;;;;;;;64.32;24.55;;;6.10;99.90;;;4.66;100.00;102850.06;4855327;28;20103;-81
2022/01/24 07:02:26;;;;;;;69.78;25.65;;;6.10;99.90;;;4.66;100.00;102842.22;4864510;28;20799;-82
2022/01/24 07:04:52;;;;;;;58.58;24.55;;;6.10;99.90;;;4.63;100.00;102839.59;4881584;28;20126;-80
2022/01/24 07:07:18;;;;;;;70.65;25.98;;;6.10;99.90;;;4.64;100.00;102843.94;4886148;28;20420;-81
2022/01/24 07:09:44;;;;;;;61.15;24.52;;;6.10;99.90;;;4.63;100.00;102852.66;4896692;28;20031;-81
2022/01/24 07:12:15;;;;;;;65.55;25.65;;;6.10;99.90;;;4.65;100.00;102857.88;4867299;28;20774;-82
2022/01/24 07:14:42;;;;;;;69.82;26.10;;;6.10;99.90;;;4.65;100.00;102855.28;4875562;28;20052;-82
2022/01/24 07:17:31;;;;;;;67.03;26.83;;;6.10;99.90;;;4.68;100.00;102863.13;4860602;28;20033;-82
2022/01/24 07:19:59;;;;;;;68.18;25.83;;;6.10;99.90;;;4.67;100.00;102862.25;4881374;28;20081;-82
2022/01/24 07:22:25;;;;;;;65.85;26.67;;;6.10;99.90;;;4.69;100.00;102865.78;4879616;28;20634;-80
2022/01/24 07:24:51;;;;;;;63.95;26.88;;;5.10;99.90;;;4.70;100.00;102864.03;4884675;28;20047;-81
2022/01/24 07:27:17;;;;;;;72.95;27.25;;;5.30;99.90;;;4.71;100.00;102861.44;4868857;28;20094;-81
2022/01/24 07:29:43;;;;;;;66.28;27.25;;;6.10;99.90;;;4.77;100.00;102862.38;4896262;28;20070;-81
2022/01/24 07:32:09;;;;;;;74.28;27.80;;;6.20;99.90;;;4.78;100.00;102861.53;4874159;28;20046;-80
2022/01/24 07:34:44;;;;;;;68.70;27.00;;;6.20;99.90;;;4.78;100.00;102867.63;4878851;28;20023;-82
2022/01/24 07:37:10;;;;;;;66.97;27.70;;;6.20;99.90;;;4.79;100.00;102860.66;4859583;28;20050;-80
2022/01/24 07:39:36;;;;;;;76.18;27.63;;;6.20;99.90;;;4.82;100.00;102864.19;4890907;28;22171;-81
2022/01/24 07:42:16;;;;;;;68.13;27.90;;;6.20;99.90;;;4.85;100.00;102858.13;4889487;28;20050;-81
2022/01/24 07:44:50;;;;;;;68.50;27.77;;;6.30;99.90;;;4.88;100.00;102864.25;4880158;28;20134;-82
2022/01/24 07:47:16;;;;;;;62.67;27.25;;;6.30;99.90;;;4.88;100.00;102860.75;4870461;28;20031;-80
2022/01/24 07:49:42;;;;;;;66.25;26.02;;;6.30;99.90;;;4.89;100.00;102858.16;4881310;28;20088;-80
2022/01/24 07:52:08;;;;;;;74.72;28.95;;;6.30;99.90;;;4.95;100.00;102854.75;4889647;28;20271;-80
2022/01/24 07:54:37;;;;;;;67.78;27.50;;;6.30;99.90;;;4.98;100.00;102864.34;4883558;28;20032;-80
2022/01/24 07:57:04;;;;;;;65.50;27.85;;;6.40;99.90;;;5.03;100.00;102866.16;4881265;28;20049;-81
2022/01/24 07:59:30;;;;;;;76.85;28.10;;;6.40;99.90;;;5.08;100.00;102863.59;4905806;28;20037;-80
2022/01/24 08:01:56;;;;;;;70.63;26.40;;;6.40;99.90;;;5.11;100.00;102872.31;4923762;28;20043;-80
2022/01/24 08:04:22;;;;;;;68.15;28.00;;;6.50;99.90;;;5.11;100.00;102861.00;4863200;28;20039;-81
2022/01/24 08:06:49;;;;;;;79.00;28.48;;;6.50;99.90;;;5.15;100.00;102857.56;4859514;28;20554;-80
2022/01/24 08:09:20;;;;;;;74.85;28.58;;;6.50;99.90;;;5.14;100.00;102855.84;4859978;28;20038;-81
2022/01/24 08:11:46;;;;;;;68.30;28.02;;;6.50;99.90;;;5.14;100.00;102858.44;4887410;28;20078;-81
2022/01/24 08:14:12;;;;;;;68.13;27.95;;;6.50;99.90;;;5.11;100.00;102848.81;4879401;28;20118;-81
2022/01/24 08:16:40;;;;;;;71.00;27.40;;;6.60;99.90;;;5.10;100.00;102846.22;4891679;28;20038;-80
2022/01/24 08:19:15;;;;;;;75.65;26.90;;;6.50;99.90;;;5.11;100.00;102840.97;4871585;28;20019;-81
2022/01/24 08:21:43;;;;;;;75.28;25.90;;;6.50;99.90;;;5.11;100.00;102850.56;4844465;28;20023;-80
2022/01/24 08:24:09;;;;;;;68.15;26.95;;;6.50;99.90;;;5.11;100.00;102848.81;4868714;28;20543;-80
2022/01/24 08:26:41;;;;;;;70.40;26.90;;;;;;;5.14;100.00;102854.09;4882823;28;20034;-79
2022/01/24 08:29:07;;;;;;;69.15;26.55;;;6.50;99.90;;;5.12;100.00;102853.19;4863429;28;20032;-80
2022/01/24 08:31:37;;;;;;;72.15;29.00;;;6.50;99.90;;;5.17;100.00;102860.19;4871719;28;20129;-81
2022/01/24 08:34:09;;;;;;;75.97;27.52;;;6.60;99.90;;;5.20;100.00;102862.84;4896306;28;20042;-81
2022/01/24 08:36:35;;;;;;;62.30;26.90;;;6.60;99.90;;;5.23;100.00;102855.03;4879920;28;20091;-83
2022/01/24 08:39:15;;;;;;;65.47;27.83;;;6.60;99.90;;;5.24;100.00;102851.56;4849605;28;20031;-81
2022/01/24 08:41:59;;;;;;;61.50;26.98;;;6.60;99.90;;;5.25;100.00;102853.31;4881267;28;20062;-82
2022/01/24 08:45:42;;;;;;;73.78;29.92;;;6.60;99.90;;;5.26;100.00;102855.06;4906134;28;20053;-81
2022/01/24 08:47:17;;;;;;;76.65;29.55;;;6.70;99.90;;;5.26;100.00;102855.06;4887154;28;20069;-81
2022/01/24 08:49:43;;;;;;;79.97;27.40;;;6.70;99.90;;;5.28;100.00;102851.59;4873087;28;20038;-81
2022/01/24 08:52:09;;;;;;;72.03;28.45;;;6.70;99.90;;;5.32;100.00;102860.34;4884050;28;20082;-81
2022/01/24 08:54:42;;;;;;;74.57;29.30;;;6.70;99.90;;;5.35;100.00;102874.28;4872357;28;20035;-81
2022/01/24 08:57:09;;;;;;;68.88;27.75;;;6.70;99.90;;;5.38;100.00;102865.63;4871734;28;20034;-81
2022/01/24 08:59:37;;;;;;;79.05;28.77;;;6.80;99.90;;;5.42;100.00;102861.28;4907992;28;20523;-81
2022/01/24 09:02:13;;;;;;;73.20;26.35;;;6.80;99.90;;;5.49;100.00;102863.13;4875898;28;20409;-81
2022/01/24 09:04:39;;;;;;;72.32;25.25;;;6.80;99.90;;;5.51;100.00;102862.25;4877256;28;20027;-81
2022/01/24 09:07:06;;;;;;;72.20;27.98;;;6.90;99.90;;;5.58;100.00;102868.41;4883926;28;20027;-81
2022/01/24 09:09:38;;;;;;;68.70;27.13;;;6.90;99.90;;;5.62;100.00;102861.50;4900012;28;20039;-82
2022/01/24 09:12:11;;;;;;;62.45;27.10;;;6.90;99.90;;;5.67;100.00;102859.78;4850082;28;20126;-80
2022/01/24 09:14:43;;;;;;;57.88;25.92;;;6.70;99.90;;;5.71;100.00;102849.34;4830838;28;20023;-81
2022/01/24 09:17:11;;;;;;;55.53;25.55;;;7.00;99.90;;;5.77;100.00;102851.16;4880974;28;20039;-81
2022/01/24 09:19:40;;;;;;;54.22;23.25;;;7.10;99.90;;;5.81;100.00;102841.56;4876250;28;20031;-80
2022/01/24 09:22:13;;;;;;;56.30;23.48;;;7.10;99.90;;;5.86;100.00;102848.59;4858377;28;20535;-80
2022/01/24 09:24:39;;;;;;;49.80;24.02;;;7.20;99.90;;;5.95;100.00;102848.69;4878797;28;20034;-80
2022/01/24 09:27:11;;;;;;;45.92;22.20;;;7.20;99.90;;;6.01;100.00;102846.97;4880729;28;20059;-80
2022/01/24 09:29:40;;;;;;;51.50;22.67;;;7.30;99.90;;;6.08;100.00;102856.59;4906233;28;20031;-80
2022/01/24 09:32:15;;;;;;;44.72;21.70;;;7.40;99.90;;;6.12;100.00;102858.38;4862516;28;20035;-81
2022/01/24 09:34:45;;;;;;;46.97;22.03;;;7.40;99.90;;;6.14;100.00;102848.81;4896180;28;20614;-78
2022/01/24 09:37:19;;;;;;;42.72;20.73;;;7.40;99.90;;;6.16;100.00;102866.25;4848133;28;20094;-80
2022/01/24 09:39:48;;;;;;;36.67;19.52;;;7.50;99.90;;;6.23;100.00;102861.94;4884460;28;20411;-81
2022/01/24 09:42:16;;;;;;;34.10;19.77;;;7.50;99.90;;;6.31;100.00;102865.47;4881341;28;20498;-81
2022/01/24 09:44:50;;;;;;;38.47;19.50;;;7.60;99.90;;;6.44;100.00;102857.69;4862672;28;20042;-82
2022/01/24 09:47:19;;;;;;;40.03;17.25;;;7.70;99.90;;;6.44;100.00;102847.22;4879964;28;20035;-80
2022/01/24 09:49:57;;;;;;;38.25;15.40;;;7.70;99.90;;;6.45;100.00;102849.81;4884280;28;20019;-80
2022/01/24 09:52:24;;;;;;;27.35;14.80;;;7.70;99.90;;;6.47;100.00;102853.31;4857165;28;20050;-79
2022/01/24 09:54:57;;;;;;;31.42;15.18;;;7.70;99.90;;;6.46;100.00;102845.47;4863242;28;20030;-81
2022/01/24 09:57:27;;;;;;;30.95;15.45;;;7.70;99.90;;;6.44;100.00;102844.59;4903967;28;20042;-81
2022/01/24 10:00:15;;;;;;;32.60;16.05;;;7.70;99.90;;;6.41;100.00;102795.72;4860769;28;20039;-78
2022/01/24 10:02:44;;;;;;;29.75;14.65;;;7.70;99.90;;;6.32;100.00;102845.41;4871393;28;20047;-80
2022/01/24 10:05:37;;;;;;;27.63;14.23;;;7.70;99.90;;;6.34;100.00;102878.56;4868166;28;20570;-81
2022/01/24 10:08:16;;;;;;;32.30;14.40;;;7.60;99.90;;;6.29;100.00;102875.03;4849785;28;20113;-80
2022/01/24 10:10:56;;;;;;;28.30;14.02;;;7.60;99.90;;;6.21;100.00;102860.19;4886648;28;20029;-79
2022/01/24 10:16:48;;;;;;;24.17;13.32;;;7.50;99.90;;;6.00;100.00;102846.09;4896437;28;20045;-78
2022/01/24 10:19:25;;;;;;;28.38;13.15;;;7.40;99.90;;;5.91;100.00;102844.25;4860667;28;20529;-81
2022/01/24 10:22:01;;;;;;;26.90;13.05;;;7.30;99.90;;;5.86;100.00;102837.25;4864980;28;20034;-81
2022/01/24 10:24:38;;;;;;;;;;;7.30;99.90;;;5.79;100.00;102835.44;4885531;28;20027;-81
2022/01/24 10:27:28;;;;;;;24.15;12.88;;;7.20;99.90;;;5.78;100.00;102833.72;4869327;28;19929;-79
2022/01/24 10:30:10;;;;;;;25.77;12.93;;;7.20;99.90;;;5.76;100.00;102837.19;4881952;28;20082;-80
2022/01/24 10:33:02;;;;;;;24.30;12.95;;;7.20;99.90;;;5.76;100.00;102831.94;4893965;28;20765;-81
2022/01/24 10:35:46;;;;;;;27.38;14.20;;;7.20;99.90;;;5.70;100.00;102833.66;4858635;28;20058;-81
2022/01/24 10:38:42;;;;;;;28.73;13.50;;;7.10;99.90;;;5.71;100.00;102833.66;4857402;28;20055;-80
2022/01/24 10:41:21;;;;;;;25.13;13.05;;;7.10;99.90;;;5.71;100.00;102833.66;4901155;28;20110;-81
2022/01/24 10:43:49;;;;;;;27.90;13.15;;;7.10;99.90;;;5.74;100.00;102832.81;4859676;28;20040;-80
2022/01/24 10:46:30;;;;;;;29.10;13.43;;;7.10;99.90;;;5.83;100.00;102826.75;4848079;28;20047;-80
2022/01/24 10:49:10;;;;;;;29.98;13.63;;;7.10;99.90;;;5.80;100.00;102825.00;4872536;28;20035;-82
2022/01/24 10:51:47;;;;;;;27.00;13.43;;;7.20;99.90;;;5.81;100.00;102828.50;4835040;28;20054;-81
2022/01/24 10:54:36;;;;;;;26.17;13.43;;;7.20;99.90;;;5.72;100.00;102824.97;4848579;28;20516;-80
2022/01/24 10:57:06;;;;;;;25.77;13.15;;;7.10;99.90;;;5.72;100.00;102813.63;4817012;28;20047;-81
2022/01/24 10:59:36;;;;;;;32.35;13.63;;;7.20;99.90;;;5.76;100.00;102816.25;4856103;28;20035;-80
2022/01/24 11:02:09;;;;;;;28.02;13.75;;;7.10;99.90;;;5.76;100.00;102829.34;4870441;28;20548;-80
2022/01/24 11:04:40;;;;;;;31.33;13.75;;;7.10;99.90;;;5.73;100.00;102823.22;4833387;28;20034;-80
2022/01/24 11:07:12;;;;;;;29.33;12.98;;;7.10;99.90;;;5.74;100.00;102822.34;4832228;28;20236;-80
2022/01/24 11:09:43;;;;;;;29.92;13.65;;;7.10;99.90;;;5.74;100.00;102817.13;4852590;28;20035;-80
2022/01/24 11:12:14;;;;;;;33.03;14.18;;;7.10;99.90;;;5.72;100.00;102816.22;4833195;29;20051;-80
2022/01/24 11:14:44;;;;;;;32.00;13.40;;;7.10;99.90;;;5.69;100.00;102819.72;4846998;28;20024;-81
2022/01/24 11:17:18;;;;;;;29.92;14.05;;;7.10;99.90;;;5.69;100.00;102818.84;4827693;29;20453;-80
2022/01/24 11:19:51;;;;;;;35.92;14.43;;;7.10;99.90;;;5.73;100.00;102810.16;4859172;28;20037;-80
2022/01/24 11:22:25;;;;;;;26.67;13.73;;;7.10;99.90;;;5.71;100.00;102812.75;4885339;28;20027;-81
2022/01/24 11:25:06;;;;;;;25.20;13.77;;;7.00;99.90;;;5.71;100.00;102809.28;4809473;29;20040;-79
2022/01/24 11:27:34;;;;;;;33.50;15.93;;;7.10;99.90;;;5.68;100.00;102797.06;4844735;28;20084;-81
2022/01/24 11:30:15;;;;;;;36.08;14.25;;;7.10;99.90;;;5.67;100.00;102805.75;4825646;29;20382;-79
2022/01/24 11:33:05;;;;;;;32.47;15.60;;;7.10;99.90;;;5.69;100.00;102806.63;4831939;28;20531;-80
2022/01/24 11:35:40;;;;;;;32.50;14.52;;;7.00;99.90;;;5.68;100.00;102801.38;4847650;28;20073;-80
2022/01/24 11:38:42;;;;;;;27.20;14.45;;;7.10;99.90;;;5.64;100.00;102807.50;4843885;28;20027;-81
2022/01/24 11:41:39;;;;;;;28.70;14.98;;;7.00;99.90;;;5.64;100.00;102794.41;4861303;28;20091;-79
2022/01/24 11:44:16;;;;;;;34.15;15.27;;;7.00;99.90;;;5.56;100.00;102794.34;4829610;28;20035;-80
2022/01/24 11:46:48;;;;;;;30.10;14.80;;;7.00;99.90;;;5.59;100.00;102803.94;4857594;28;20031;-80
2022/01/24 11:49:38;;;;;;;40.42;16.35;;;7.00;99.90;;;5.56;100.00;102796.97;4859961;28;20412;-80
2022/01/24 11:52:16;;;;;;;29.45;15.00;;;6.90;99.90;;;5.49;100.00;102796.03;4839411;28;20050;-80
2022/01/24 11:57:25;;;;;;;34.50;15.45;;;6.90;99.90;;;5.50;100.00;102792.56;4854771;28;20036;-80
2022/01/24 12:00:16;;;;;;;29.20;15.75;;;6.90;99.90;;;5.49;100.00;102803.88;4863912;28;20078;-80
2022/01/24 12:03:02;;;;;;;32.63;16.98;;;6.90;99.90;;;5.43;100.00;102803.84;4867886;28;20059;-80